createdAt,value
2023-04-19T00:00:41.746Z,73.82
2023-04-19T00:03:10.179Z,73.57
2023-04-19T00:05:41.224Z,73.84
2023-04-19T00:08:08.835Z,73.87
2023-04-19T00:10:36.139Z,74.70
2023-04-19T00:13:03.492Z,74.17
2023-04-19T00:15:30.740Z,74.60
2023-04-19T00:17:58.010Z,74.74
2023-04-19T00:20:25.233Z,75.23
2023-04-19T00:22:52.626Z,75.32
2023-04-19T00:25:19.912Z,75.06
2023-04-19T00:27:47.121Z,75.37
2023-04-19T00:30:14.738Z,75.35
2023-04-19T00:32:42.058Z,75.74
2023-04-19T00:35:09.426Z,76.06
2023-04-19T00:37:36.718Z,76.04
2023-04-19T00:40:06.012Z,76.07
2023-04-19T00:42:33.369Z,75.74
2023-04-19T00:45:00.666Z,76.32
2023-04-19T00:47:28.048Z,76.24
2023-04-19T00:49:55.711Z,76.09
2023-04-19T00:52:22.974Z,76.45
2023-04-19T00:54:50.214Z,76.66
2023-04-19T00:57:17.846Z,77.01
2023-04-19T00:59:45.111Z,77.01
2023-04-19T01:02:12.954Z,77.31
2023-04-19T01:04:40.458Z,76.95
2023-04-19T01:07:07.846Z,76.78
2023-04-19T01:09:35.117Z,77.04
2023-04-19T01:12:03.576Z,77.60
2023-04-19T01:14:30.884Z,76.97
2023-04-19T01:16:58.252Z,77.16
2023-04-19T01:19:26.946Z,77.04
2023-04-19T01:21:56.430Z,77.27
2023-04-19T01:24:23.771Z,76.94
2023-04-19T01:26:51.434Z,77.34
2023-04-19T01:29:18.908Z,77.09
2023-04-19T01:31:51.456Z,77.06
2023-04-19T01:34:18.825Z,77.47
2023-04-19T01:36:46.322Z,77.60
2023-04-19T01:39:13.763Z,78.19
2023-04-19T01:41:41.045Z,77.68
2023-04-19T01:44:10.088Z,77.56
2023-04-19T01:46:38.950Z,77.78
2023-04-19T01:49:06.488Z,77.58
2023-04-19T01:51:33.713Z,77.26
2023-04-19T01:54:02.686Z,77.16
2023-04-19T01:56:30.102Z,77.24
2023-04-19T01:58:57.440Z,77.65
2023-04-19T02:01:25.014Z,77.04
2023-04-19T02:03:52.498Z,77.49
2023-04-19T02:06:20.450Z,77.37
2023-04-19T02:08:50.089Z,77.25
2023-04-19T02:11:17.488Z,77.38
2023-04-19T02:13:44.813Z,77.31
2023-04-19T02:16:12.235Z,77.22
2023-04-19T02:18:40.792Z,76.89
2023-04-19T02:21:10.020Z,77.29
2023-04-19T02:23:37.393Z,76.59
2023-04-19T02:26:04.719Z,77.08
2023-04-19T02:28:32.304Z,76.79
2023-04-19T02:30:59.558Z,76.69
2023-04-19T02:33:29.207Z,76.78
2023-04-19T02:35:56.482Z,76.98
2023-04-19T02:38:23.792Z,77.07
2023-04-19T02:40:54.265Z,77.53
2023-04-19T02:43:21.530Z,77.14
2023-04-19T02:45:48.819Z,76.86
2023-04-19T02:48:16.153Z,77.00
2023-04-19T02:50:43.448Z,77.45
2023-04-19T02:53:10.801Z,76.99
2023-04-19T02:55:38.455Z,76.60
2023-04-19T02:58:10.597Z,76.71
2023-04-19T03:00:44.214Z,76.95
2023-04-19T03:03:15.625Z,77.04
2023-04-19T03:05:43.063Z,77.44
2023-04-19T03:08:11.227Z,77.52
2023-04-19T03:10:39.200Z,77.11
2023-04-19T03:13:06.424Z,77.13
2023-04-19T03:15:33.704Z,77.34
2023-04-19T03:18:01.089Z,77.64
2023-04-19T03:20:30.075Z,77.47
2023-04-19T03:22:58.159Z,77.72
2023-04-19T03:25:26.170Z,77.57
2023-04-19T03:28:00.901Z,77.67
2023-04-19T03:30:51.140Z,77.49
2023-04-19T03:33:18.524Z,77.48
2023-04-19T03:35:46.128Z,77.63
2023-04-19T03:38:13.446Z,77.38
2023-04-19T03:40:40.694Z,77.71
2023-04-19T03:43:10.608Z,77.52
2023-04-19T03:45:37.905Z,77.36
2023-04-19T03:48:05.560Z,77.52
2023-04-19T03:50:32.872Z,77.66
2023-04-19T03:53:01.391Z,77.96
2023-04-19T03:55:28.881Z,77.84
2023-04-19T03:57:56.494Z,77.96
2023-04-19T04:00:36.482Z,77.83
2023-04-19T04:03:04.181Z,78.27
2023-04-19T04:05:31.936Z,78.27
2023-04-19T04:08:01.084Z,78.50
2023-04-19T04:10:28.394Z,78.41
2023-04-19T04:12:55.850Z,78.64
2023-04-19T04:15:35.635Z,78.33
2023-04-19T04:18:03.917Z,78.22
2023-04-19T04:20:31.698Z,78.39
2023-04-19T04:23:05.500Z,78.61
2023-04-19T04:25:33.182Z,78.22
2023-04-19T04:28:06.333Z,78.57
2023-04-19T04:30:34.481Z,78.35
2023-04-19T04:33:02.693Z,78.41
2023-04-19T04:35:30.790Z,78.36
2023-04-19T04:38:17.481Z,78.06
2023-04-19T04:40:57.018Z,78.24
2023-04-19T04:43:25.878Z,78.01
2023-04-19T04:45:55.747Z,77.75
2023-04-19T04:48:24.326Z,78.07
2023-04-19T04:50:51.622Z,77.82
2023-04-19T04:53:20.335Z,77.40
2023-04-19T04:55:47.578Z,77.34
2023-04-19T04:58:15.265Z,76.89
2023-04-19T05:00:52.376Z,76.52
2023-04-19T05:03:20.349Z,76.55
2023-04-19T05:05:53.927Z,77.00
2023-04-19T05:08:21.485Z,77.00
2023-04-19T05:10:49.319Z,77.07
2023-04-19T05:13:23.666Z,76.21
2023-04-19T05:15:51.854Z,76.10
2023-04-19T05:18:19.809Z,76.00
2023-04-19T05:20:47.506Z,75.73
2023-04-19T05:23:20.352Z,76.18
2023-04-19T05:25:49.485Z,75.46
2023-04-19T05:28:16.984Z,75.71
2023-04-19T05:30:57.190Z,75.61
2023-04-19T05:33:29.039Z,75.58
2023-04-19T05:35:57.685Z,75.86
2023-04-19T05:38:25.184Z,75.70
2023-04-19T05:40:56.597Z,75.23
2023-04-19T05:43:30.421Z,75.33
2023-04-19T05:45:58.483Z,74.74
2023-04-19T05:48:26.564Z,74.83
2023-04-19T05:51:07.284Z,74.96
2023-04-19T05:56:47.493Z,74.96
2023-04-19T05:59:16.120Z,75.15
2023-04-19T06:01:43.750Z,75.55
2023-04-19T06:04:11.666Z,75.60
2023-04-19T06:06:39.391Z,75.25
2023-04-19T06:09:42.243Z,75.57
2023-04-19T06:12:12.993Z,75.87
2023-04-19T06:14:40.821Z,75.87
2023-04-19T06:17:09.002Z,76.44
2023-04-19T06:19:37.855Z,76.11
2023-04-19T06:22:05.330Z,77.23
2023-04-19T06:24:33.751Z,76.95
2023-04-19T06:27:03.037Z,77.09
2023-04-19T06:29:30.672Z,77.81
2023-04-19T06:32:20.289Z,77.11
2023-04-19T06:34:50.935Z,77.57
2023-04-19T06:37:18.304Z,77.55
2023-04-19T06:39:45.829Z,77.63
2023-04-19T06:42:15.004Z,76.98
2023-04-19T06:44:42.318Z,77.16
2023-04-19T06:47:09.918Z,77.16
2023-04-19T06:49:37.649Z,76.98
2023-04-19T06:52:04.953Z,76.56
2023-04-19T06:54:32.641Z,76.45
2023-04-19T06:57:00.967Z,76.67
2023-04-19T06:59:28.526Z,76.35
2023-04-19T07:04:54.354Z,76.55
2023-04-19T07:07:21.958Z,76.28
2023-04-19T07:09:52.228Z,76.84
2023-04-19T07:12:19.765Z,76.67
2023-04-19T07:14:47.107Z,76.39
2023-04-19T07:17:15.135Z,76.23
2023-04-19T07:19:42.836Z,76.07
2023-04-19T07:22:10.339Z,75.27
2023-04-19T07:24:40.342Z,75.76
2023-04-19T07:27:08.330Z,75.41
2023-04-19T07:29:36.864Z,75.08
2023-04-19T07:32:05.012Z,75.43
2023-04-19T07:34:32.290Z,75.57
2023-04-19T07:36:59.862Z,75.07
2023-04-19T07:39:27.348Z,75.25
2023-04-19T07:41:54.660Z,75.37
2023-04-19T07:44:21.960Z,76.49
2023-04-19T07:46:49.583Z,76.37
2023-04-19T07:49:17.232Z,75.93
2023-04-19T07:51:44.623Z,75.17
2023-04-19T07:54:12.748Z,74.70
2023-04-19T07:56:40.431Z,74.90
2023-04-19T07:59:09.402Z,74.01
2023-04-19T08:01:37.311Z,73.76
2023-04-19T08:04:06.532Z,72.95
2023-04-19T08:06:38.369Z,72.48
2023-04-19T08:09:05.950Z,72.44
2023-04-19T08:11:33.201Z,72.04
2023-04-19T08:17:14.196Z,71.67
2023-04-19T08:19:19.444Z,71.54
2023-04-19T08:21:46.897Z,71.62
2023-04-19T08:24:14.473Z,71.71
2023-04-19T08:26:42.661Z,72.03
2023-04-19T08:29:10.122Z,72.03
2023-04-19T08:31:37.575Z,72.98
2023-04-19T08:34:05.189Z,72.54
2023-04-19T08:36:41.065Z,72.53
2023-04-19T08:39:24.724Z,72.00
2023-04-19T08:42:05.952Z,71.56
2023-04-19T08:44:48.924Z,70.70
2023-04-19T08:47:29.603Z,70.16
2023-04-19T08:50:17.284Z,70.86
2023-04-19T08:52:58.695Z,70.26
2023-04-19T08:55:31.070Z,70.08
2023-04-19T08:57:58.930Z,69.34
2023-04-19T09:00:26.426Z,69.94
2023-04-19T09:02:57.798Z,69.10
2023-04-19T09:05:25.856Z,68.88
2023-04-19T09:07:53.875Z,69.60
2023-04-19T09:10:21.874Z,68.71
2023-04-19T09:13:05.704Z,68.72
2023-04-19T09:15:37.975Z,68.58
2023-04-19T09:18:10.051Z,69.47
2023-04-19T09:20:42.467Z,70.93
2023-04-19T09:23:12.914Z,69.95
2023-04-19T09:28:37.078Z,71.47
2023-04-19T09:31:30.318Z,71.94
2023-04-19T09:34:17.033Z,73.36
2023-04-19T09:36:44.496Z,72.61
2023-04-19T09:39:15.209Z,72.79
2023-04-19T09:41:55.735Z,71.93
2023-04-19T09:44:53.065Z,71.54
2023-04-19T09:47:25.050Z,72.08
2023-04-19T09:50:21.776Z,71.22
2023-04-19T09:52:50.624Z,71.19
2023-04-19T09:55:26.686Z,68.91
2023-04-19T09:57:56.658Z,69.07
2023-04-19T10:00:27.026Z,69.34
2023-04-19T10:02:59.004Z,70.36
2023-04-19T10:05:27.035Z,69.20
2023-04-19T10:07:59.685Z,68.63
2023-04-19T10:10:41.179Z,66.86
2023-04-19T10:15:51.403Z,66.96
2023-04-19T10:18:21.570Z,67.22
2023-04-19T10:21:02.444Z,68.34
2023-04-19T10:23:30.217Z,67.91
2023-04-19T10:25:58.171Z,68.06
2023-04-19T10:28:28.326Z,67.40
2023-04-19T10:31:01.804Z,67.79
2023-04-19T10:33:32.174Z,67.11
2023-04-19T10:35:59.821Z,65.51
2023-04-19T10:38:49.611Z,64.78
2023-04-19T10:41:18.930Z,64.00
2023-04-19T10:43:47.572Z,63.79
2023-04-19T10:46:21.503Z,64.04
2023-04-19T10:48:58.900Z,64.11
2023-04-19T10:51:39.597Z,63.94
2023-04-19T10:54:29.574Z,62.61
2023-04-19T10:57:07.536Z,63.18
2023-04-19T10:59:36.029Z,62.53
2023-04-19T11:02:25.283Z,63.00
2023-04-19T11:04:54.251Z,63.66
2023-04-19T11:07:21.820Z,63.10
2023-04-19T11:09:51.207Z,64.25
2023-04-19T11:12:19.715Z,64.49
2023-04-19T11:14:54.853Z,64.79
2023-04-19T11:17:27.417Z,63.90
2023-04-19T11:19:56.544Z,63.99
2023-04-19T11:22:36.861Z,63.22
2023-04-19T11:25:14.563Z,63.21
2023-04-19T11:27:44.595Z,63.72
2023-04-19T11:30:14.926Z,63.46
2023-04-19T11:32:47.304Z,63.57
2023-04-19T11:35:14.992Z,63.11
2023-04-19T11:37:42.914Z,63.60
2023-04-19T11:40:14.449Z,63.32
2023-04-19T11:42:41.935Z,63.68
2023-04-19T11:45:26.067Z,63.64
2023-04-19T11:47:56.433Z,63.93
2023-04-19T11:50:42.088Z,64.79
2023-04-19T11:53:23.055Z,64.36
2023-04-19T11:55:51.687Z,63.00
2023-04-19T11:58:49.613Z,63.65
2023-04-19T12:01:19.859Z,64.01
2023-04-19T12:03:52.234Z,64.46
2023-04-19T12:06:31.756Z,64.79
2023-04-19T12:08:59.194Z,64.39
2023-04-19T12:11:42.474Z,65.08
2023-04-19T12:14:10.418Z,64.06
2023-04-19T12:16:38.212Z,63.83
2023-04-19T12:19:15.194Z,62.61
2023-04-19T12:21:42.831Z,61.19
2023-04-19T12:24:10.395Z,63.03
2023-04-19T12:26:38.237Z,62.39
2023-04-19T12:29:05.913Z,61.12
2023-04-19T12:31:33.950Z,62.15
2023-04-19T12:34:01.171Z,62.01
2023-04-19T12:36:28.733Z,63.62
2023-04-19T12:38:56.383Z,63.27
2023-04-19T12:41:23.883Z,62.42
2023-04-19T12:43:51.290Z,60.24
2023-04-19T12:46:18.999Z,59.69
2023-04-19T12:48:46.398Z,59.99
2023-04-19T12:51:13.693Z,59.40
2023-04-19T12:53:42.126Z,59.18
2023-04-19T12:56:09.531Z,59.68
2023-04-19T12:58:36.870Z,60.40
2023-04-19T13:01:04.163Z,60.43
2023-04-19T13:03:33.341Z,59.89
2023-04-19T13:06:01.342Z,60.20
2023-04-19T13:11:01.559Z,59.95
2023-04-19T13:13:29.543Z,60.56
2023-04-19T13:15:57.117Z,60.34
2023-04-19T13:18:24.928Z,60.52
2023-04-19T13:20:54.016Z,60.71
2023-04-19T13:23:21.702Z,60.22
2023-04-19T13:25:49.003Z,60.84
2023-04-19T13:28:16.321Z,60.56
2023-04-19T13:30:44.627Z,60.42
2023-04-19T13:33:11.900Z,60.37
2023-04-19T13:35:39.317Z,60.67
2023-04-19T13:38:06.768Z,60.39
2023-04-19T13:40:34.251Z,59.68
2023-04-19T13:43:01.725Z,57.08
2023-04-19T13:45:29.058Z,55.79
2023-04-19T13:47:56.490Z,52.66
2023-04-19T13:50:23.929Z,53.16
2023-04-19T13:52:51.718Z,53.35
2023-04-19T13:55:21.756Z,54.57
2023-04-19T13:57:49.171Z,54.91
2023-04-19T14:00:17.057Z,54.90
2023-04-19T14:02:45.527Z,55.44
2023-04-19T14:05:12.985Z,55.60
2023-04-19T14:07:40.768Z,56.90
2023-04-19T14:10:09.366Z,56.99
2023-04-19T14:12:36.776Z,57.83
2023-04-19T14:15:04.466Z,56.80
2023-04-19T14:17:31.913Z,57.39
2023-04-19T14:20:03.085Z,56.46
2023-04-19T14:22:42.828Z,58.31
2023-04-19T14:25:13.840Z,59.30
2023-04-19T14:27:42.990Z,59.37
2023-04-19T14:30:17.023Z,59.75
2023-04-19T14:32:50.485Z,59.83
2023-04-19T14:35:20.218Z,60.07
2023-04-19T14:37:48.311Z,59.08
2023-04-19T14:40:18.275Z,58.88
2023-04-19T14:42:45.634Z,59.07
2023-04-19T14:45:12.969Z,58.88
2023-04-19T14:47:40.622Z,57.99
2023-04-19T14:50:08.227Z,59.88
2023-04-19T14:52:35.748Z,61.31
2023-04-19T14:55:04.266Z,60.39
2023-04-19T14:57:32.012Z,59.62
2023-04-19T15:00:01.212Z,59.59
2023-04-19T15:02:29.069Z,59.30
2023-04-19T15:05:15.036Z,58.77
2023-04-19T15:07:45.072Z,58.84
2023-04-19T15:10:12.420Z,59.32
2023-04-19T15:12:39.781Z,59.98
2023-04-19T15:15:07.635Z,61.63
2023-04-19T15:17:35.306Z,63.31
2023-04-19T15:20:03.294Z,63.09
2023-04-19T15:22:30.815Z,64.14
2023-04-19T15:24:58.191Z,65.49
2023-04-19T15:27:25.784Z,66.06
2023-04-19T15:29:53.754Z,65.42
2023-04-19T15:32:22.156Z,65.73
2023-04-19T15:34:55.208Z,65.66
2023-04-19T15:37:28.383Z,66.17
2023-04-19T15:40:14.320Z,65.77
2023-04-19T15:42:43.132Z,66.09
2023-04-19T15:45:12.084Z,66.30
2023-04-19T15:47:45.341Z,67.03
2023-04-19T15:50:15.184Z,66.78
2023-04-19T15:52:46.689Z,66.34
2023-04-19T15:55:18.296Z,65.72
2023-04-19T15:57:50.409Z,64.84
2023-04-19T16:00:18.762Z,64.08
2023-04-19T16:02:46.193Z,63.17
2023-04-19T16:05:14.053Z,63.71
2023-04-19T16:07:44.396Z,63.30
2023-04-19T16:10:12.366Z,62.19
2023-04-19T16:12:39.656Z,61.65
2023-04-19T16:15:07.798Z,62.07
2023-04-19T16:17:35.117Z,62.39
2023-04-19T16:20:02.532Z,63.03
2023-04-19T16:22:29.800Z,63.33
2023-04-19T16:24:57.080Z,63.79
2023-04-19T16:27:24.438Z,63.54
2023-04-19T16:29:51.908Z,63.73
2023-04-19T16:32:19.295Z,63.87
2023-04-19T16:34:46.653Z,64.82
2023-04-19T16:37:16.062Z,65.10
2023-04-19T16:39:43.541Z,65.62
2023-04-19T16:42:10.919Z,66.36
2023-04-19T16:44:38.285Z,65.98
2023-04-19T16:47:05.644Z,66.28
2023-04-19T16:49:32.950Z,66.74
2023-04-19T16:52:00.120Z,66.91
2023-04-19T16:54:27.351Z,66.88
2023-04-19T16:56:55.605Z,66.88
2023-04-19T16:59:25.675Z,65.90
2023-04-19T17:01:58.378Z,66.18
2023-04-19T17:04:28.172Z,66.46
2023-04-19T17:06:56.100Z,65.93
2023-04-19T17:09:34.295Z,65.95
2023-04-19T17:12:02.263Z,66.23
2023-04-19T17:14:29.668Z,66.27
2023-04-19T17:16:57.000Z,66.14
2023-04-19T17:19:24.232Z,66.31
2023-04-19T17:21:51.661Z,66.15
2023-04-19T17:24:19.072Z,66.23
2023-04-19T17:26:46.639Z,66.42
2023-04-19T17:29:13.880Z,66.08
2023-04-19T17:31:41.335Z,66.72
2023-04-19T17:34:08.750Z,66.49
2023-04-19T17:36:36.287Z,66.68
2023-04-19T17:39:03.695Z,66.70
2023-04-19T17:41:31.057Z,67.01
2023-04-19T17:43:59.326Z,67.24
2023-04-19T17:46:26.644Z,66.83
2023-04-19T17:48:55.489Z,67.66
2023-04-19T17:51:22.871Z,67.93
2023-04-19T17:53:50.083Z,68.18
2023-04-19T17:56:17.691Z,67.83
2023-04-19T17:58:45.942Z,67.50
2023-04-19T18:01:15.299Z,68.18
2023-04-19T18:03:42.697Z,68.15
2023-04-19T18:06:10.738Z,68.76
2023-04-19T18:08:38.059Z,69.39
2023-04-19T18:11:05.671Z,68.46
2023-04-19T18:13:33.065Z,68.43
2023-04-19T18:16:00.597Z,68.38
2023-04-19T18:18:27.856Z,68.97
2023-04-19T18:20:55.265Z,68.85
2023-04-19T18:23:22.712Z,68.20
2023-04-19T18:25:54.280Z,68.57
2023-04-19T18:28:21.700Z,68.23
2023-04-19T18:30:48.866Z,68.06
2023-04-19T18:33:16.221Z,68.52
2023-04-19T18:35:43.463Z,68.45
2023-04-19T18:38:10.839Z,68.55
2023-04-19T18:40:38.081Z,68.68
2023-04-19T18:43:05.463Z,68.78
2023-04-19T18:45:33.353Z,68.71
2023-04-19T18:48:01.247Z,68.78
2023-04-19T18:50:28.510Z,69.05
2023-04-19T18:52:56.036Z,69.18
2023-04-19T18:55:23.247Z,69.34
2023-04-19T18:57:51.148Z,69.32
2023-04-19T19:00:20.001Z,69.59
2023-04-19T19:02:47.469Z,69.15
2023-04-19T19:05:16.198Z,69.30
2023-04-19T19:07:43.919Z,69.02
2023-04-19T19:10:19.434Z,69.92
2023-04-19T19:12:49.599Z,70.06
2023-04-19T19:15:17.522Z,70.56
2023-04-19T19:17:49.461Z,70.74
2023-04-19T19:20:18.387Z,70.61
2023-04-19T19:22:45.879Z,70.35
2023-04-19T19:25:13.421Z,70.74
2023-04-19T19:27:40.914Z,70.63
2023-04-19T19:30:08.858Z,70.04
2023-04-19T19:32:36.183Z,70.08
2023-04-19T19:35:06.242Z,69.78
2023-04-19T19:37:36.766Z,70.33
2023-04-19T19:40:06.613Z,69.80
2023-04-19T19:42:34.691Z,70.29
2023-04-19T19:45:04.761Z,69.24
2023-04-19T19:47:35.305Z,69.77
2023-04-19T19:52:34.308Z,68.36
2023-04-19T19:55:01.600Z,68.39
2023-04-19T20:00:18.023Z,68.96
2023-04-19T20:05:17.451Z,68.67
2023-04-19T20:08:01.102Z,68.01
2023-04-19T20:10:29.513Z,67.45
2023-04-19T20:12:57.327Z,67.44
2023-04-19T20:15:24.585Z,67.05
2023-04-19T20:17:51.921Z,67.21
2023-04-19T20:20:19.330Z,67.14
2023-04-19T20:22:47.899Z,66.56
2023-04-19T20:25:15.352Z,66.31
2023-04-19T20:27:42.558Z,66.50
2023-04-19T20:30:10.200Z,66.32
2023-04-19T20:32:37.419Z,65.93
2023-04-19T20:35:10.070Z,66.27
2023-04-19T20:37:39.823Z,65.80
2023-04-19T20:40:08.293Z,65.95
2023-04-19T20:42:35.528Z,66.02
2023-04-19T20:45:03.079Z,66.19
2023-04-19T20:47:32.096Z,66.23
2023-04-19T20:49:59.620Z,66.19
2023-04-19T20:52:26.869Z,65.79
2023-04-19T20:54:56.296Z,65.91
2023-04-19T20:57:23.615Z,65.73
2023-04-19T20:59:51.086Z,65.98
2023-04-19T21:02:18.382Z,66.63
2023-04-19T21:04:45.824Z,66.08
2023-04-19T21:07:13.354Z,66.29
2023-04-19T21:09:41.195Z,66.30
2023-04-19T21:12:08.497Z,66.45
2023-04-19T21:14:35.781Z,67.17
2023-04-19T21:17:03.325Z,66.80
2023-04-19T21:19:30.693Z,67.17
2023-04-19T21:21:58.575Z,67.20
2023-04-19T21:24:26.373Z,66.79
2023-04-19T21:26:53.607Z,67.33
2023-04-19T21:29:20.978Z,67.09
2023-04-19T21:31:48.492Z,67.28
2023-04-19T21:34:15.731Z,67.62
2023-04-19T21:36:42.974Z,67.44
2023-04-19T21:39:10.329Z,67.33
2023-04-19T21:41:37.893Z,66.91
2023-04-19T21:44:05.106Z,67.53
2023-04-19T21:46:33.426Z,67.61
2023-04-19T21:49:00.801Z,67.82
2023-04-19T21:51:28.245Z,67.56
2023-04-19T21:53:55.593Z,66.68
2023-04-19T21:56:22.840Z,67.10
2023-04-19T21:58:50.120Z,67.57
2023-04-19T22:01:17.604Z,67.57
2023-04-19T22:03:45.608Z,67.20
2023-04-19T22:06:13.991Z,67.45
2023-04-19T22:08:42.458Z,67.81
2023-04-19T22:11:09.693Z,68.14
2023-04-19T22:13:37.502Z,67.80
2023-04-19T22:16:05.156Z,68.18
2023-04-19T22:18:34.677Z,68.12
2023-04-19T22:21:02.088Z,68.03
2023-04-19T22:23:29.372Z,68.20
2023-04-19T22:25:56.763Z,67.61
2023-04-19T22:28:23.935Z,68.42
2023-04-19T22:30:51.366Z,68.00
2023-04-19T22:33:19.395Z,68.22
2023-04-19T22:35:46.683Z,68.85
2023-04-19T22:38:13.922Z,67.93
2023-04-19T22:40:41.360Z,68.37
2023-04-19T22:43:08.509Z,68.34
2023-04-19T22:45:35.832Z,68.03
2023-04-19T22:48:03.392Z,67.95
2023-04-19T22:50:31.138Z,68.24
2023-04-19T22:52:58.385Z,68.32
2023-04-19T22:55:25.930Z,68.40
2023-04-19T22:57:53.171Z,69.21
2023-04-19T23:00:20.503Z,69.49
2023-04-19T23:02:47.791Z,69.59
2023-04-19T23:05:15.194Z,69.17
2023-04-19T23:07:43.524Z,69.38
2023-04-19T23:10:12.361Z,69.03
2023-04-19T23:12:39.571Z,68.98
2023-04-19T23:15:07.674Z,69.32
2023-04-19T23:17:34.923Z,69.52
2023-04-19T23:20:02.324Z,68.92
2023-04-19T23:22:29.643Z,69.34
2023-04-19T23:24:56.845Z,69.66
2023-04-19T23:27:24.081Z,69.61
2023-04-19T23:29:51.431Z,70.11
2023-04-19T23:32:18.651Z,69.88
2023-04-19T23:34:46.023Z,69.77
2023-04-19T23:37:13.722Z,69.75
2023-04-19T23:39:41.176Z,70.18
2023-04-19T23:42:08.442Z,70.44
2023-04-19T23:44:35.790Z,70.55
2023-04-19T23:47:03.593Z,70.67
2023-04-19T23:49:31.254Z,71.32
2023-04-19T23:51:58.573Z,71.16
2023-04-19T23:54:26.385Z,71.06
2023-04-19T23:56:53.797Z,71.22
2023-04-19T23:59:21.067Z,71.36
